Time;durP1;ratioP1;P1;durP2;ratioP2;P2;SDS_P1;SDS_P2;PMS_P1;PMS_P2;Temp;Humidity;BMP_temperature;BMP_pressure;BME280_temperature;BME280_humidity;BME280_pressure;Samples;Min_cycle;Max_cycle;Signal;HPM_P1;HPM_P2
2023/09/28 00:01:13;;;;;;;8.07;6.57;;;22.10;99.90;;;22.50;78.65;101142.47;5000235;28;20051;-74
2023/09/28 00:03:47;;;;;;;8.50;6.25;;;22.10;99.90;;;22.47;78.66;101140.81;5009745;28;20061;-73
2023/09/28 00:06:16;;;;;;;9.13;6.85;;;22.00;99.90;;;22.35;79.29;101136.91;5006690;28;20100;-73
2023/09/28 00:08:44;;;;;;;7.30;6.40;;;22.00;99.90;;;22.38;79.68;101139.44;5001408;28;20046;-73
2023/09/28 00:11:11;;;;;;;15.00;7.38;;;21.90;99.90;;;22.30;80.03;101130.84;5012379;28;20049;-72
2023/09/28 00:13:40;;;;;;;11.43;6.63;;;21.90;99.90;;;22.28;80.29;101143.53;5003367;28;20045;-73
2023/09/28 00:16:07;;;;;;;9.02;6.88;;;21.80;99.90;;;22.27;80.58;101139.09;5005104;28;20121;-73
2023/09/28 00:18:36;;;;;;;9.48;6.65;;;21.80;99.90;;;22.25;80.74;101141.00;5011306;28;20128;-73
2023/09/28 00:21:05;;;;;;;11.00;7.20;;;21.80;99.90;;;22.25;80.71;101150.88;4999754;28;20539;-73
2023/09/28 00:23:34;;;;;;;10.07;6.85;;;21.80;99.90;;;22.26;80.78;101158.03;5008612;28;20058;-73
2023/09/28 00:26:02;;;;;;;10.30;6.95;;;21.80;99.90;;;22.18;81.18;101150.28;5007190;28;20049;-73
2023/09/28 00:28:30;;;;;;;12.57;7.38;;;21.80;99.90;;;22.13;81.57;101152.34;5000531;28;20066;-73
2023/09/28 00:30:58;;;;;;;10.18;6.85;;;21.70;99.90;;;22.13;81.76;101154.16;5011162;28;20408;-73
2023/09/28 00:33:27;;;;;;;9.52;7.18;;;21.70;99.90;;;22.16;81.88;101165.66;5003348;28;20042;-73
2023/09/28 00:35:54;;;;;;;11.07;7.20;;;21.70;99.90;;;22.16;81.69;101172.91;5004250;28;20492;-73
2023/09/28 00:38:24;;;;;;;10.68;6.78;;;21.70;99.90;;;22.13;81.95;101163.13;5010199;28;20042;-73
2023/09/28 00:40:51;;;;;;;8.23;6.83;;;21.70;99.90;;;22.13;82.24;101176.59;4999593;28;20042;-73
2023/09/28 00:43:27;;;;;;;9.25;6.90;;;21.70;99.90;;;22.08;82.48;101167.88;5015538;28;20674;-72
2023/09/28 00:45:54;;;;;;;8.18;6.65;;;21.60;99.90;;;22.08;82.61;101172.38;5002262;28;20054;-73
2023/09/28 00:48:23;;;;;;;10.35;7.13;;;21.60;99.90;;;22.03;82.80;101161.81;5025972;28;20487;-73
2023/09/28 00:50:52;;;;;;;;;;;21.60;99.90;;;22.09;83.03;101177.69;5001131;28;20046;-74
2023/09/28 00:53:21;;;;;;;8.77;6.95;;;21.70;99.90;;;22.07;83.17;101182.28;5021440;28;19929;-73
2023/09/28 00:55:53;;;;;;;10.05;6.95;;;21.60;99.90;;;21.98;83.83;101179.13;5023543;28;20046;-74
2023/09/28 00:58:23;;;;;;;11.70;7.55;;;21.50;99.90;;;21.71;84.54;101165.09;5013560;28;20089;-74
2023/09/28 01:00:52;;;;;;;11.23;6.95;;;21.50;99.90;;;21.82;86.15;101191.56;5007633;28;20050;-73
2023/09/28 01:03:19;;;;;;;11.05;7.57;;;21.40;99.90;;;21.20;86.70;101070.50;5005149;28;20053;-73
2023/09/28 01:05:48;;;;;;;12.73;8.10;;;21.40;99.90;;;21.77;87.61;101180.97;5000544;28;20052;-73
2023/09/28 01:08:18;;;;;;;12.40;7.68;;;21.30;99.90;;;21.91;87.47;101185.75;5011252;28;20064;-74
2023/09/28 01:10:47;;;;;;;16.73;8.13;;;21.40;99.90;;;21.95;87.16;101182.84;5016537;28;20046;-73
2023/09/28 01:13:20;;;;;;;15.20;7.82;;;21.40;99.90;;;21.92;86.96;101184.81;5004471;28;20113;-75
2023/09/28 01:15:50;;;;;;;15.38;7.65;;;21.40;99.90;;;21.87;86.58;101176.97;5010816;28;20045;-74
2023/09/28 01:18:22;;;;;;;13.43;7.53;;;21.40;99.90;;;21.74;86.18;101142.53;4998879;28;20061;-73
2023/09/28 01:20:52;;;;;;;;;;;21.50;99.90;;;21.87;85.66;101176.06;5022371;28;20078;-74
2023/09/28 01:23:21;;;;;;;12.65;6.80;;;21.40;99.90;;;21.77;85.35;101190.88;5007504;28;19980;-74
2023/09/28 01:25:49;;;;;;;16.23;7.25;;;21.40;99.90;;;21.72;85.38;101188.38;4998722;28;20049;-73
2023/09/28 01:28:17;;;;;;;13.05;6.40;;;21.30;99.90;;;21.77;85.08;101189.06;5009953;28;20038;-73
2023/09/28 01:30:46;;;;;;;11.25;6.88;;;21.30;99.90;;;21.63;84.52;101163.69;5003843;28;20121;-73
2023/09/28 01:33:14;;;;;;;11.15;6.00;;;21.30;99.90;;;21.74;84.38;101191.88;5001649;28;20042;-73
2023/09/28 01:35:43;;;;;;;14.23;6.20;;;21.30;99.90;;;21.71;84.25;101194.72;5010792;28;20046;-71
2023/09/28 01:38:21;;;;;;;11.00;6.13;;;21.20;99.90;;;21.71;83.79;101197.41;5000415;28;20046;-73
2023/09/28 01:40:51;;;;;;;12.77;5.90;;;21.20;99.90;;;21.69;83.69;101193.91;5019429;28;20054;-73
2023/09/28 01:43:19;;;;;;;15.20;6.05;;;21.20;99.90;;;21.73;83.04;101195.53;5008007;28;20540;-73
2023/09/28 01:45:49;;;;;;;12.88;5.68;;;21.30;99.90;;;21.66;82.99;101196.72;4998510;28;20050;-74
2023/09/28 01:48:16;;;;;;;10.77;5.35;;;21.20;99.90;;;21.68;82.99;101202.91;5007591;28;20042;-73
2023/09/28 01:50:45;;;;;;;14.50;5.53;;;21.20;99.90;;;21.70;82.43;101210.94;5004412;28;20053;-73
2023/09/28 01:53:13;;;;;;;13.02;5.40;;;21.20;99.90;;;21.60;82.46;101213.19;5014040;28;20109;-73
2023/09/28 01:55:42;;;;;;;12.43;5.72;;;21.10;99.90;;;21.53;82.33;101208.97;5009350;28;20058;-73
2023/09/28 01:58:10;;;;;;;10.60;5.65;;;21.10;99.90;;;21.46;81.94;101207.50;5000546;28;20060;-73
2023/09/28 02:00:40;;;;;;;13.85;5.07;;;21.00;99.90;;;21.44;80.85;101204.00;5012497;28;20038;-73
2023/09/28 02:03:08;;;;;;;13.80;5.43;;;21.00;99.90;;;21.38;80.13;101201.59;5013648;28;20053;-73
2023/09/28 02:05:38;;;;;;;15.02;5.40;;;21.00;99.90;;;21.38;79.81;101210.53;5010151;28;20117;-74
2023/09/28 02:08:06;;;;;;;17.63;5.95;;;20.90;99.90;;;21.33;79.47;101217.94;5017046;28;20129;-74
2023/09/28 02:10:34;;;;;;;17.13;5.10;;;20.90;99.90;;;21.23;79.40;101207.63;5000712;28;20496;-74
2023/09/28 02:13:04;;;;;;;13.40;5.30;;;20.80;99.90;;;21.24;79.04;101212.06;5025504;28;20104;-73
2023/09/28 02:15:33;;;;;;;15.45;5.53;;;20.80;99.90;;;21.28;78.69;101217.25;4998293;28;20078;-72
2023/09/28 02:18:01;;;;;;;16.35;4.97;;;20.80;99.90;;;21.17;78.21;101214.16;5013857;28;20049;-73
2023/09/28 02:20:31;;;;;;;14.57;5.28;;;20.70;99.90;;;21.17;77.84;101211.47;5016370;28;20560;-73
2023/09/28 02:22:58;;;;;;;19.58;5.72;;;20.70;99.90;;;21.15;77.77;101204.38;5009753;28;20610;-73
2023/09/28 02:25:27;;;;;;;16.27;5.07;;;20.70;99.90;;;21.20;77.91;101205.94;4998309;28;20091;-72
2023/09/28 02:27:55;;;;;;;21.08;6.13;;;20.70;99.90;;;21.21;78.08;101207.72;5004623;28;20043;-73
2023/09/28 02:30:25;;;;;;;16.77;5.28;;;20.70;99.90;;;21.22;78.12;101208.56;5005457;28;20041;-73
2023/09/28 02:32:55;;;;;;;16.40;6.28;;;20.80;99.90;;;21.18;78.44;101202.44;4997504;28;20053;-73
2023/09/28 02:35:24;;;;;;;17.20;5.38;;;20.70;99.90;;;21.04;79.15;101209.34;5008172;28;20053;-73
2023/09/28 02:37:53;;;;;;;25.08;6.20;;;20.60;99.90;;;20.96;79.62;101208.75;5003050;28;20050;-73
2023/09/28 02:40:23;;;;;;;20.52;6.10;;;20.60;99.90;;;20.93;80.14;101217.81;5014954;28;20050;-73
2023/09/28 02:42:52;;;;;;;26.08;6.03;;;20.50;99.90;;;21.00;80.20;101219.31;5008641;28;20050;-73
2023/09/28 02:45:20;;;;;;;30.98;7.03;;;20.50;99.90;;;20.90;80.56;101227.84;4999646;28;20042;-73
2023/09/28 02:47:50;;;;;;;22.92;6.35;;;20.50;99.90;;;21.00;80.74;101235.44;5018305;28;20054;-73
2023/09/28 02:50:21;;;;;;;24.58;6.35;;;20.50;99.90;;;20.91;81.02;101240.34;5008307;28;20088;-73
2023/09/28 02:52:49;;;;;;;21.67;6.95;;;20.50;99.90;;;20.88;81.70;101237.78;4997302;28;20096;-74
2023/09/28 02:55:18;;;;;;;30.13;7.72;;;20.40;99.90;;;20.89;81.99;101239.53;5005572;28;20125;-74
2023/09/28 02:57:47;;;;;;;28.83;6.90;;;20.50;99.90;;;20.94;82.05;101245.59;5004749;28;20046;-73
2023/09/28 03:00:30;;;;;;;23.67;6.38;;;20.50;99.90;;;20.92;82.13;101252.88;4997829;28;20046;-73
2023/09/28 03:03:06;;;;;;;28.67;7.20;;;20.50;99.90;;;20.90;82.26;101252.06;5013149;28;20153;-74
2023/09/28 03:05:37;;;;;;;27.15;7.55;;;20.40;99.90;;;20.81;82.89;101263.19;5012522;28;20054;-73
2023/09/28 03:08:09;;;;;;;26.67;7.30;;;20.40;99.90;;;20.83;82.99;101264.00;4997670;28;20046;-73
2023/09/28 03:10:40;;;;;;;33.65;8.25;;;20.40;99.90;;;20.62;83.62;101271.97;5008865;28;20101;-73
2023/09/28 03:13:08;;;;;;;34.53;7.65;;;20.30;99.90;;;20.66;83.82;101267.34;5001257;28;20164;-74
2023/09/28 03:15:39;;;;;;;39.92;9.25;;;20.20;99.90;;;20.58;84.48;101270.34;5000849;28;20054;-73
2023/09/28 03:18:08;;;;;;;;;;;20.10;99.90;;;20.58;84.76;101277.53;5009527;28;20046;-73
2023/09/28 03:20:36;;;;;;;37.17;7.97;;;20.10;99.90;;;20.63;84.96;101278.22;4997698;28;19921;-73
2023/09/28 03:23:06;;;;;;;38.13;8.20;;;20.10;99.90;;;20.59;85.27;101268.53;5019081;28;20515;-73
2023/09/28 03:25:36;;;;;;;37.17;8.05;;;20.10;99.90;;;20.53;85.38;101277.72;5021162;28;20054;-72
2023/09/28 03:28:05;;;;;;;42.90;8.03;;;20.10;99.90;;;20.47;85.35;101280.63;4996397;28;20518;-73
2023/09/28 03:30:33;;;;;;;32.50;8.30;;;20.00;99.90;;;20.39;85.66;101280.06;5007594;28;20133;-74
2023/09/28 03:33:01;;;;;;;30.90;7.38;;;19.90;99.90;;;20.40;85.58;101270.19;5002386;28;20053;-73
2023/09/28 03:35:31;;;;;;;34.30;8.63;;;19.90;99.90;;;20.31;85.45;101252.59;5000085;28;20125;-73
2023/09/28 03:37:59;;;;;;;30.70;8.13;;;20.00;99.90;;;20.45;85.58;101274.44;5008960;28;20073;-73
2023/09/28 03:40:33;;;;;;;33.42;8.48;;;20.00;99.90;;;20.47;85.48;101263.63;5013497;28;20081;-73
2023/09/28 03:43:02;;;;;;;34.30;7.90;;;20.00;99.90;;;20.54;85.39;101270.50;5002047;28;20067;-72
2023/09/28 03:45:30;;;;;;;29.85;8.20;;;20.00;99.90;;;20.50;85.33;101263.50;5022754;28;20148;-73
2023/09/28 03:47:59;;;;;;;35.70;9.13;;;20.10;99.90;;;20.54;85.31;101278.56;4996378;28;20129;-73
2023/09/28 03:50:28;;;;;;;41.20;8.73;;;20.10;99.90;;;20.55;85.37;101291.09;5004713;28;20061;-73
2023/09/28 03:52:57;;;;;;;34.85;8.60;;;20.10;99.90;;;20.55;85.18;101291.97;5003819;28;20057;-73
2023/09/28 03:55:26;;;;;;;33.33;8.82;;;20.10;99.90;;;20.53;84.96;101290.28;4997741;28;20431;-73
2023/09/28 03:57:54;;;;;;;36.35;8.57;;;20.10;99.90;;;20.56;84.68;101291.03;5008683;28;20058;-73
2023/09/28 04:00:23;;;;;;;40.97;9.35;;;20.10;99.90;;;20.39;84.56;101295.28;4999952;28;20046;-74
2023/09/28 04:02:54;;;;;;;37.28;10.15;;;20.00;99.90;;;20.34;84.68;101302.66;5001280;28;20058;-73
2023/09/28 04:05:24;;;;;;;33.08;7.90;;;19.90;99.90;;;20.37;84.38;101295.34;5023686;28;20764;-74
2023/09/28 04:07:53;;;;;;;39.70;10.27;;;19.90;99.90;;;20.41;84.49;101293.44;4999882;28;20065;-73
2023/09/28 04:10:23;;;;;;;39.78;9.90;;;20.00;99.90;;;20.38;84.69;101307.84;5022578;28;20068;-73
2023/09/28 04:12:53;;;;;;;40.60;9.60;;;19.90;99.90;;;20.40;85.10;101322.09;5009284;28;20046;-73
2023/09/28 04:15:23;;;;;;;41.83;9.05;;;19.90;99.90;;;20.43;85.35;101311.25;4999676;28;20543;-74
2023/09/28 04:17:51;;;;;;;39.15;9.15;;;19.90;99.90;;;20.39;85.72;101309.63;5010600;28;20050;-73
2023/09/28 04:20:20;;;;;;;35.45;8.43;;;20.00;99.90;;;20.42;85.91;101317.56;5005491;28;20136;-73
2023/09/28 04:22:49;;;;;;;38.05;9.05;;;19.90;99.90;;;20.43;86.09;101305.88;5002378;28;20496;-73
2023/09/28 04:25:20;;;;;;;40.97;9.20;;;19.90;99.90;;;20.42;86.34;101311.31;5012063;28;20046;-73
2023/09/28 04:27:50;;;;;;;39.78;8.95;;;19.90;99.90;;;20.34;86.51;101329.53;5002059;28;20495;-74
2023/09/28 04:30:20;;;;;;;37.10;9.73;;;19.90;99.90;;;20.28;86.60;101335.13;5005101;28;20046;-74
2023/09/28 04:32:51;;;;;;;35.72;8.75;;;19.80;99.90;;;20.18;86.71;101331.00;5010741;28;20054;-74
2023/09/28 04:35:20;;;;;;;28.35;8.07;;;19.80;99.90;;;20.09;87.25;101334.88;4999589;28;20052;-73
2023/09/28 04:37:49;;;;;;;36.13;9.07;;;19.70;99.90;;;19.98;87.18;101318.28;5008596;28;20049;-73
2023/09/28 04:40:24;;;;;;;31.88;8.52;;;19.70;99.90;;;20.18;86.93;101331.91;5007033;28;20475;-73
2023/09/28 04:42:54;;;;;;;43.83;9.00;;;19.70;99.90;;;20.17;86.89;101338.16;4999393;28;20057;-73
2023/09/28 04:45:23;;;;;;;38.47;9.20;;;19.70;99.90;;;20.12;86.79;101345.53;5010800;28;20119;-73
2023/09/28 04:47:51;;;;;;;38.00;9.13;;;19.70;99.90;;;20.12;86.73;101341.94;5004176;28;20042;-72
2023/09/28 04:50:20;;;;;;;39.03;9.32;;;19.60;99.90;;;20.09;86.67;101348.31;5002925;28;20046;-74
2023/09/28 04:52:49;;;;;;;31.85;7.85;;;19.60;99.90;;;20.10;86.61;101357.25;5011346;28;20054;-73
2023/09/28 04:55:17;;;;;;;29.45;7.88;;;19.60;99.90;;;19.85;86.54;101329.50;5001089;28;20137;-73
2023/09/28 04:57:45;;;;;;;36.88;9.45;;;19.60;99.90;;;20.00;86.67;101367.44;5006228;28;20562;-73
2023/09/28 05:00:16;;;;;;;29.00;8.20;;;19.60;99.90;;;20.02;86.63;101364.69;5008549;28;20384;-73
2023/09/28 05:02:47;;;;;;;37.35;9.52;;;19.60;99.90;;;19.96;86.90;101355.06;4999206;28;20050;-73
2023/09/28 05:05:16;;;;;;;32.67;8.85;;;19.60;99.90;;;19.88;87.03;101332.09;5009252;28;20042;-73
2023/09/28 05:07:45;;;;;;;38.90;8.88;;;19.50;99.90;;;19.95;87.05;101347.94;5004872;28;20426;-73
2023/09/28 05:10:13;;;;;;;32.55;8.23;;;19.50;99.90;;;19.18;86.91;101229.81;5000316;28;20058;-72
2023/09/28 05:12:42;;;;;;;33.75;7.70;;;19.50;99.90;;;19.89;86.82;101358.91;5010635;28;20042;-73
2023/09/28 05:15:13;;;;;;;40.65;9.40;;;19.50;99.90;;;19.78;87.03;101366.44;5001164;28;20073;-73
2023/09/28 05:17:43;;;;;;;39.75;9.38;;;19.40;99.90;;;19.78;86.95;101361.09;5003262;28;20077;-70
2023/09/28 05:20:12;;;;;;;53.83;9.90;;;19.30;99.90;;;19.71;86.91;101357.72;5010306;28;20084;-69
2023/09/28 05:22:43;;;;;;;32.60;9.00;;;19.30;99.90;;;19.68;87.06;101359.63;5013849;28;20141;-71
2023/09/28 05:25:12;;;;;;;40.45;9.63;;;19.30;99.90;;;19.65;86.76;101354.34;5006940;28;20375;-69
2023/09/28 05:27:40;;;;;;;32.08;8.50;;;19.20;99.90;;;19.61;86.82;101358.94;5006392;28;20042;-70
2023/09/28 05:30:10;;;;;;;35.85;9.23;;;19.20;99.90;;;19.60;86.81;101359.91;4999155;28;20408;-70
2023/09/28 05:32:38;;;;;;;31.23;8.32;;;19.20;99.90;;;19.59;86.74;101376.91;4998957;28;20046;-68
2023/09/28 05:35:10;;;;;;;32.53;8.10;;;19.20;99.90;;;19.53;86.92;101379.78;5014335;28;20049;-69
2023/09/28 05:37:38;;;;;;;39.20;9.18;;;19.10;99.90;;;19.53;86.77;101376.25;5017100;28;20133;-68
2023/09/28 05:40:09;;;;;;;36.80;9.27;;;19.10;99.90;;;19.48;86.87;101370.16;5010581;28;20101;-69
2023/09/28 05:42:38;;;;;;;46.08;8.55;;;19.10;99.90;;;19.39;87.19;101367.78;4999950;28;20164;-68
2023/09/28 05:45:09;;;;;;;37.10;8.88;;;19.00;99.90;;;19.38;87.42;101374.06;5004916;28;20050;-69
2023/09/28 05:47:38;;;;;;;34.85;8.98;;;18.90;99.90;;;19.33;87.66;101367.97;5008557;28;20054;-69
2023/09/28 05:50:09;;;;;;;30.50;8.00;;;18.90;99.90;;;19.36;87.81;101374.09;4998174;28;20104;-69
2023/09/28 05:52:37;;;;;;;41.53;9.13;;;18.90;99.90;;;19.37;87.79;101383.03;5007583;28;20097;-70
2023/09/28 05:55:07;;;;;;;36.88;9.10;;;18.90;99.90;;;19.45;87.67;101387.22;5020133;28;20457;-70
2023/09/28 05:57:36;;;;;;;37.10;9.02;;;19.00;99.90;;;19.50;87.50;101387.06;4998240;28;20046;-69
2023/09/28 06:00:09;;;;;;;39.78;8.60;;;19.00;99.90;;;19.45;87.60;101391.72;5010097;28;20050;-69
2023/09/28 06:02:37;;;;;;;37.15;8.77;;;19.00;99.90;;;19.46;87.71;101388.09;5001784;28;20078;-69
2023/09/28 06:05:09;;;;;;;36.15;8.40;;;19.10;99.90;;;19.52;87.59;101401.31;5002443;28;20061;-70
2023/09/28 06:07:38;;;;;;;43.00;8.27;;;19.10;99.90;;;19.49;87.64;101394.25;5009060;28;20507;-70
2023/09/28 06:10:09;;;;;;;39.45;9.40;;;19.10;99.90;;;19.48;88.09;101391.63;4997834;28;20042;-69
2023/09/28 06:12:37;;;;;;;35.15;9.00;;;19.00;99.90;;;19.45;88.05;101386.34;5004596;28;20050;-69
2023/09/28 06:15:09;;;;;;;40.35;9.00;;;19.10;99.90;;;18.84;88.30;101285.47;5006304;28;20038;-69
2023/09/28 06:17:37;;;;;;;37.85;9.88;;;19.00;99.90;;;19.48;88.22;101394.28;4997253;28;20066;-69
2023/09/28 06:20:09;;;;;;;35.97;9.15;;;19.00;99.90;;;19.51;88.26;101399.59;5006475;28;20105;-69
2023/09/28 06:22:37;;;;;;;38.25;8.50;;;19.10;99.90;;;19.50;88.27;101403.19;5003556;28;20038;-69
2023/09/28 06:25:08;;;;;;;34.78;9.13;;;19.10;99.90;;;19.48;88.43;101399.66;4999413;28;20312;-69
2023/09/28 06:27:37;;;;;;;39.60;9.88;;;19.10;99.90;;;19.49;88.75;101423.75;5009991;28;20046;-69
2023/09/28 06:30:08;;;;;;;41.97;9.68;;;19.00;99.90;;;19.49;88.66;101428.28;4999096;28;20042;-69
2023/09/28 06:32:36;;;;;;;33.60;8.45;;;19.10;99.90;;;19.56;88.84;101424.44;5002596;28;20061;-69
2023/09/28 06:35:06;;;;;;;39.45;8.77;;;19.10;99.90;;;19.54;88.83;101437.94;5023760;28;20045;-68
2023/09/28 06:37:36;;;;;;;36.00;8.70;;;19.10;99.90;;;19.53;88.92;101448.72;4997324;28;20046;-68
2023/09/28 06:40:06;;;;;;;30.13;8.87;;;19.10;99.90;;;19.57;88.95;101453.91;5005791;28;20058;-68
2023/09/28 06:42:34;;;;;;;42.25;9.95;;;19.10;99.90;;;19.58;89.02;101449.44;5005320;28;20282;-68
2023/09/28 06:45:08;;;;;;;38.42;8.95;;;19.20;99.90;;;19.37;88.89;101405.41;4997532;28;20081;-68
2023/09/28 06:47:36;;;;;;;42.50;9.75;;;19.10;99.90;;;19.58;88.89;101434.22;5008476;28;20057;-68
2023/09/28 06:50:25;;;;;;;35.92;8.90;;;19.10;99.90;;;19.53;88.86;101438.84;5004656;28;20780;-71
2023/09/28 06:52:55;;;;;;;39.03;9.18;;;19.10;99.90;;;19.54;88.65;101443.28;4997094;28;20420;-71
2023/09/28 06:55:24;;;;;;;34.10;9.02;;;19.10;99.90;;;19.73;88.72;101440.88;4997625;28;20049;-69
2023/09/28 06:57:52;;;;;;;39.72;8.70;;;19.20;99.90;;;19.78;88.42;101439.78;5005210;28;20050;-71
2023/09/28 07:00:22;;;;;;;30.63;7.93;;;19.30;99.90;;;19.76;87.97;101443.47;5005833;28;20053;-70
2023/09/28 07:02:51;;;;;;;34.58;8.00;;;19.30;99.90;;;19.79;87.61;101438.00;5012042;28;20148;-71
2023/09/28 07:05:20;;;;;;;40.63;9.30;;;19.30;99.90;;;19.76;87.64;101454.22;5008469;28;20681;-71
2023/09/28 07:07:48;;;;;;;40.17;9.00;;;19.30;99.90;;;19.69;87.75;101456.22;5002370;28;20042;-71
2023/09/28 07:10:19;;;;;;;33.38;8.98;;;19.30;99.90;;;19.76;87.83;101456.91;5000005;28;20054;-71
2023/09/28 07:12:46;;;;;;;36.85;8.57;;;19.30;99.90;;;19.78;88.06;101447.00;5008647;28;20049;-71
2023/09/28 07:15:15;;;;;;;33.33;9.75;;;19.30;99.90;;;19.74;87.80;101456.06;4997583;28;20500;-72
2023/09/28 07:17:44;;;;;;;37.55;9.25;;;19.40;99.90;;;19.73;88.14;101474.00;5002913;28;20373;-68
2023/09/28 07:20:15;;;;;;;38.20;8.60;;;19.30;99.90;;;19.79;88.20;101470.22;5005925;28;20046;-71
2023/09/28 07:22:43;;;;;;;34.17;8.15;;;19.30;99.90;;;19.75;88.36;101471.25;4996606;28;20443;-71
2023/09/28 07:25:12;;;;;;;30.67;8.88;;;19.30;99.90;;;19.81;88.29;101484.47;5006966;28;20051;-69
2023/09/28 07:27:42;;;;;;;41.15;9.18;;;19.30;99.90;;;19.79;88.33;101487.22;5002991;28;20046;-69
2023/09/28 07:30:11;;;;;;;34.42;8.65;;;19.30;99.90;;;19.74;88.48;101488.31;4998677;28;20049;-72
2023/09/28 07:32:40;;;;;;;34.25;8.27;;;19.30;99.90;;;19.77;88.45;101493.56;5008679;28;20037;-70
2023/09/28 07:35:10;;;;;;;36.13;9.18;;;19.40;99.90;;;19.73;88.54;101486.53;4999441;28;20045;-75
2023/09/28 07:37:38;;;;;;;35.65;9.38;;;19.40;99.90;;;19.72;88.43;101491.00;5002009;28;20050;-71
2023/09/28 07:40:12;;;;;;;37.22;8.60;;;19.30;99.90;;;19.74;88.32;101491.84;5007005;28;20113;-72
2023/09/28 07:42:44;;;;;;;32.88;7.97;;;19.30;99.90;;;19.79;88.59;101497.06;5000559;28;20064;-71
2023/09/28 07:45:13;;;;;;;31.70;8.80;;;19.30;99.90;;;19.79;88.22;101505.13;5016980;28;20042;-70
2023/09/28 07:47:42;;;;;;;33.03;8.85;;;19.40;99.90;;;19.88;88.55;101506.66;5004037;28;20039;-70
2023/09/28 07:50:14;;;;;;;36.80;8.23;;;19.50;99.90;;;19.90;88.02;101512.84;5013095;28;20388;-69
2023/09/28 07:52:45;;;;;;;35.70;8.68;;;19.50;99.90;;;20.02;88.21;101505.25;5001989;28;20112;-71
2023/09/28 07:55:14;;;;;;;35.10;8.48;;;19.60;99.90;;;20.23;87.40;101504.56;5007061;28;20042;-66
2023/09/28 07:57:46;;;;;;;31.55;8.27;;;19.80;99.90;;;20.48;87.25;101508.16;5010402;28;20050;-66
2023/09/28 08:00:25;;;;;;;33.60;9.57;;;20.00;99.90;;;20.62;85.82;101521.13;5000446;28;20479;-68
2023/09/28 08:02:53;;;;;;;37.17;8.50;;;20.20;99.90;;;20.70;84.55;101513.66;5016079;28;20065;-68
2023/09/28 08:05:22;;;;;;;30.80;8.18;;;20.30;99.90;;;20.80;84.11;101514.22;5019711;28;20074;-68
2023/09/28 08:07:50;;;;;;;35.50;9.20;;;20.40;99.90;;;20.90;83.74;101521.03;5012382;28;20054;-67
2023/09/28 08:10:38;;;;;;;33.75;8.65;;;20.50;99.90;;;21.11;83.59;101531.03;5009543;28;20211;-67
2023/09/28 08:13:08;;;;;;;32.15;8.23;;;20.70;99.90;;;21.19;82.91;101531.63;5007234;28;20068;-65
2023/09/28 08:15:41;;;;;;;43.60;9.50;;;20.80;99.90;;;21.19;82.22;101537.91;4999667;28;20042;-66
2023/09/28 08:18:10;;;;;;;38.38;8.88;;;20.80;99.90;;;21.18;81.62;101514.59;4999305;28;20045;-66
2023/09/28 08:20:39;;;;;;;33.55;8.48;;;20.80;99.90;;;21.19;81.45;101537.91;5015238;28;20046;-66
2023/09/28 08:23:15;;;;;;;31.15;7.95;;;20.80;99.90;;;21.06;81.27;101535.72;5002415;28;20050;-66
2023/09/28 08:25:44;;;;;;;35.63;8.20;;;20.70;99.90;;;21.13;81.40;101538.13;5012327;28;20059;-66
2023/09/28 08:28:15;;;;;;;33.33;7.90;;;20.70;99.90;;;21.18;81.76;101546.00;5001231;28;20054;-66
2023/09/28 08:30:43;;;;;;;29.65;8.43;;;20.80;99.90;;;21.18;81.54;101543.31;5004844;28;20050;-66
2023/09/28 08:33:11;;;;;;;34.28;8.30;;;20.80;99.90;;;21.11;81.49;101539.09;5009623;28;20483;-66
2023/09/28 08:35:40;;;;;;;29.55;7.57;;;20.70;99.90;;;21.05;81.88;101532.13;4999426;28;20049;-67
2023/09/28 08:38:08;;;;;;;39.40;9.65;;;20.70;99.90;;;21.17;82.12;101539.75;5009506;28;20058;-66
2023/09/28 08:40:36;;;;;;;37.33;9.02;;;20.70;99.90;;;21.26;82.29;101554.66;5005536;28;20092;-67
2023/09/28 08:43:07;;;;;;;33.13;8.80;;;20.80;99.90;;;21.15;81.64;101546.13;5001500;28;20173;-67
2023/09/28 08:45:40;;;;;;;37.83;9.20;;;20.80;99.90;;;21.01;82.03;101559.19;5011697;28;20513;-67
2023/09/28 08:48:11;;;;;;;38.33;8.90;;;20.60;99.90;;;20.91;82.18;101549.66;5002956;28;20054;-65
2023/09/28 08:50:40;;;;;;;37.53;9.35;;;20.60;99.90;;;21.04;82.26;101575.25;5019013;28;20054;-66
2023/09/28 08:53:10;;;;;;;34.80;8.90;;;20.60;99.90;;;20.93;81.90;101577.38;5010674;28;20423;-66
2023/09/28 08:55:39;;;;;;;41.57;9.00;;;20.50;99.90;;;20.29;82.20;101466.75;4999570;28;20058;-65
2023/09/28 08:58:09;;;;;;;33.47;8.13;;;20.50;99.90;;;20.85;82.28;101571.44;5014993;28;20401;-66
2023/09/28 09:00:40;;;;;;;38.53;8.80;;;20.40;99.90;;;20.79;82.13;101577.03;5018054;28;20066;-66
2023/09/28 09:03:09;;;;;;;29.77;8.57;;;20.30;99.90;;;20.81;82.20;101577.84;5011442;28;20491;-66
2023/09/28 09:05:41;;;;;;;32.35;8.73;;;20.40;99.90;;;20.78;82.13;101583.31;5000373;28;20155;-66
2023/09/28 09:08:12;;;;;;;33.55;8.15;;;20.40;99.90;;;20.78;82.30;101594.06;5005513;28;20062;-65
2023/09/28 09:10:41;;;;;;;34.17;8.20;;;20.30;99.90;;;20.73;82.44;101591.53;5009292;28;20381;-66
2023/09/28 09:13:17;;;;;;;41.63;8.68;;;20.30;99.90;;;20.66;82.62;101563.09;4999233;28;20428;-68
2023/09/28 09:15:47;;;;;;;40.55;9.27;;;20.30;99.90;;;20.63;82.58;101577.53;5007543;28;20122;-66
2023/09/28 09:18:20;;;;;;;35.42;7.97;;;20.20;99.90;;;20.62;83.15;101570.41;5006284;28;20488;-66
2023/09/28 09:20:49;;;;;;;30.98;8.23;;;20.20;99.90;;;20.68;83.36;101564.81;4998033;28;20113;-66
2023/09/28 09:23:19;;;;;;;31.02;8.25;;;20.20;99.90;;;20.65;83.36;101572.97;5009499;28;20413;-66
2023/09/28 09:25:48;;;;;;;35.03;9.35;;;20.20;99.90;;;20.77;83.51;101570.81;5003138;28;20050;-66
2023/09/28 09:28:29;;;;;;;31.27;7.43;;;20.30;99.90;;;20.71;83.05;101573.72;5016723;28;20065;-65
2023/09/28 09:30:59;;;;;;;32.45;8.43;;;20.30;99.90;;;20.79;82.83;101582.41;5010910;28;20042;-66
2023/09/28 09:33:28;;;;;;;33.08;8.45;;;20.30;99.90;;;20.77;82.48;101578.88;5016987;28;20046;-66
2023/09/28 09:35:58;;;;;;;36.38;8.23;;;20.40;99.90;;;20.73;82.61;101569.16;5003112;28;20543;-66
2023/09/28 09:38:29;;;;;;;30.48;7.88;;;20.30;99.90;;;20.71;82.75;101566.53;5010000;28;20041;-66
2023/09/28 09:40:59;;;;;;;35.33;8.23;;;20.30;99.90;;;20.78;82.57;101568.06;5010452;28;20061;-66
2023/09/28 09:43:32;;;;;;;35.20;7.55;;;20.40;99.90;;;20.78;82.51;101561.81;5002728;28;20054;-65
2023/09/28 09:46:04;;;;;;;31.00;8.20;;;20.40;99.90;;;20.84;82.93;101567.84;5001349;28;20495;-66
2023/09/28 09:48:39;;;;;;;30.48;8.68;;;20.40;99.90;;;20.90;82.82;101569.44;5010748;28;20053;-65
2023/09/28 09:51:12;;;;;;;36.95;8.63;;;20.40;99.90;;;20.84;82.65;101559.78;5001042;28;20060;-66
2023/09/28 09:53:42;;;;;;;32.88;7.75;;;20.40;99.90;;;20.91;82.49;101576.56;5003084;28;20046;-66
2023/09/28 09:56:13;;;;;;;35.22;7.93;;;20.50;99.90;;;20.87;82.16;101572.22;5009809;28;20038;-68
2023/09/28 09:58:47;;;;;;;24.77;7.30;;;20.50;99.90;;;21.00;82.46;101573.56;4998073;28;20124;-68
2023/09/28 10:01:20;;;;;;;34.72;8.45;;;20.50;99.90;;;21.01;82.79;101567.28;5014547;28;20049;-68
2023/09/28 10:03:50;;;;;;;29.73;8.00;;;20.60;99.90;;;21.11;82.90;101568.69;5000344;28;20057;-70
2023/09/28 10:06:21;;;;;;;34.22;7.90;;;20.70;99.90;;;21.11;81.87;101576.78;5010067;28;20054;-69
2023/09/28 10:08:53;;;;;;;35.38;8.57;;;20.70;99.90;;;20.97;82.35;101554.81;5000546;28;20415;-70
2023/09/28 10:11:22;;;;;;;32.97;8.10;;;20.70;99.90;;;21.06;82.01;101574.22;5003065;28;20042;-67
2023/09/28 10:13:52;;;;;;;33.22;8.05;;;20.70;99.90;;;20.96;81.90;101580.88;5009296;28;20049;-68
2023/09/28 10:16:22;;;;;;;37.17;9.90;;;20.70;99.90;;;21.07;82.21;101589.47;4998092;28;20406;-68
2023/09/28 10:18:52;;;;;;;30.70;7.93;;;20.70;99.90;;;20.95;81.92;101595.25;5006298;28;20050;-66